Time;durP1;ratioP1;P1;durP2;ratioP2;P2;SDS_P1;SDS_P2;PMS_P1;PMS_P2;Temp;Humidity;BMP_temperature;BMP_pressure;BME280_temperature;BME280_humidity;BME280_pressure;Samples;Min_cycle;Max_cycle;Signal;HPM_P1;HPM_P2
2021/05/07 00:01:09;;;;;;;13.23;7.25;;;14.10;97.10;;;;;;4955886;29;20027;-71
2021/05/07 00:03:36;;;;;;;14.98;7.03;;;14.20;96.60;;;;;;4955818;29;20109;-71
2021/05/07 00:06:06;;;;;;;11.82;7.13;;;14.30;96.70;;;;;;4955802;29;20023;-71
2021/05/07 00:08:34;;;;;;;13.55;6.43;;;14.30;96.30;;;;;;4955707;29;20109;-71
2021/05/07 00:11:04;;;;;;;14.90;6.85;;;14.40;96.10;;;;;;4955834;29;20375;-71
2021/05/07 00:13:30;;;;;;;13.40;6.10;;;14.40;96.20;;;;;;4955970;29;20059;-70
2021/05/07 00:15:56;;;;;;;11.93;6.68;;;14.40;96.30;;;;;;4955893;29;20427;-71
2021/05/07 00:18:22;;;;;;;9.60;5.93;;;14.40;96.90;;;;;;4955962;29;20029;-70
2021/05/07 00:20:48;;;;;;;9.75;6.03;;;14.40;97.30;;;;;;4955476;29;20565;-70
2021/05/07 00:23:14;;;;;;;11.48;6.03;;;14.30;97.10;;;;;;4955510;29;20031;-70
2021/05/07 00:25:40;;;;;;;10.52;6.30;;;14.40;97.10;;;;;;4938411;29;20474;-70
2021/05/07 00:28:11;;;;;;;8.98;5.43;;;14.40;96.60;;;;;;4955777;29;20031;-70
2021/05/07 00:30:38;;;;;;;8.70;5.60;;;14.40;96.00;;;;;;4956184;29;20107;-71
2021/05/07 00:33:06;;;;;;;8.30;5.57;;;14.50;95.90;;;;;;4955506;29;20016;-70
2021/05/07 00:35:32;;;;;;;10.82;6.05;;;14.40;96.20;;;;;;4955368;29;20026;-71
2021/05/07 00:37:58;;;;;;;13.00;6.50;;;14.50;96.00;;;;;;4955727;29;20019;-70
2021/05/07 00:40:26;;;;;;;14.18;6.85;;;14.50;95.50;;;;;;4961269;28;20043;-69
2021/05/07 00:42:51;;;;;;;13.07;7.13;;;14.60;95.50;;;;;;4961767;28;20031;-69
2021/05/07 00:45:18;;;;;;;16.77;7.07;;;14.60;94.90;;;;;;4961845;28;20035;-70
2021/05/07 00:48:04;;;;;;;12.00;6.53;;;14.60;95.10;;;;;;4961884;28;20066;-70
2021/05/07 00:50:32;;;;;;;12.00;6.45;;;14.70;95.00;;;;;;4961837;28;20039;-69
2021/05/07 00:52:59;;;;;;;8.75;5.35;;;14.70;95.30;;;;;;4961517;28;20043;-70
2021/05/07 00:55:26;;;;;;;9.23;5.55;;;14.80;94.30;;;;;;4961733;28;20028;-71
2021/05/07 00:57:53;;;;;;;11.30;5.72;;;14.70;95.50;;;;;;4961552;29;20382;-69
2021/05/07 01:00:19;;;;;;;11.90;6.05;;;14.60;95.50;;;;;;4961299;28;20019;-70
2021/05/07 01:02:45;;;;;;;11.85;6.00;;;14.60;95.50;;;;;;4961618;29;20055;-71
2021/05/07 01:05:12;;;;;;;8.95;5.88;;;14.50;95.70;;;;;;4961786;29;20515;-70
2021/05/07 01:07:38;;;;;;;10.32;6.57;;;14.50;96.30;;;;;;4961740;28;20031;-70
2021/05/07 01:10:05;;;;;;;12.45;7.63;;;14.50;95.90;;;;;;4961632;28;20027;-70
2021/05/07 01:12:31;;;;;;;13.93;8.02;;;14.40;95.70;;;;;;4961363;28;20039;-70
2021/05/07 01:15:08;;;;;;;13.75;8.05;;;14.40;95.80;;;;;;4961496;29;20049;-70
2021/05/07 01:17:37;;;;;;;11.45;7.40;;;14.50;95.50;;;;;;4944286;29;20046;-70
2021/05/07 01:20:12;;;;;;;11.98;7.20;;;14.50;95.70;;;;;;4961407;29;20032;-70
2021/05/07 01:22:40;;;;;;;12.63;6.25;;;14.50;95.70;;;;;;4962026;28;20023;-71
2021/05/07 01:25:07;;;;;;;10.18;6.10;;;14.50;95.70;;;;;;4961514;28;20019;-70
2021/05/07 01:27:42;;;;;;;8.68;5.68;;;14.40;95.50;;;;;;4961688;28;20382;-70
2021/05/07 01:30:18;;;;;;;10.18;5.47;;;14.40;95.50;;;;;;4961411;29;20034;-70
2021/05/07 01:32:45;;;;;;;9.85;4.68;;;14.40;95.60;;;;;;4961433;28;20027;-70
2021/05/07 01:35:14;;;;;;;8.75;4.50;;;14.40;95.40;;;;;;4961398;28;20082;-70
2021/05/07 01:37:45;;;;;;;10.52;4.28;;;14.40;95.40;;;;;;4961457;28;20027;-70
2021/05/07 01:40:22;;;;;;;7.38;4.60;;;14.30;95.50;;;;;;4961648;29;20118;-71
2021/05/07 01:42:50;;;;;;;9.10;4.68;;;14.30;95.50;;;;;;4961307;29;20031;-71
2021/05/07 01:45:18;;;;;;;7.07;4.03;;;14.30;95.90;;;;;;4961139;28;20023;-69
2021/05/07 01:47:45;;;;;;;8.60;4.13;;;14.30;95.40;;;;;;4961171;29;20394;-70
2021/05/07 01:50:13;;;;;;;7.20;4.22;;;14.30;95.40;;;;;;4959808;28;20027;-70
2021/05/07 01:52:40;;;;;;;9.27;4.32;;;14.30;95.60;;;;;;4957495;29;20472;-70
2021/05/07 01:55:08;;;;;;;10.02;4.35;;;14.30;95.40;;;;;;4940809;29;20027;-70
2021/05/07 01:57:36;;;;;;;7.78;4.30;;;14.30;95.50;;;;;;4958292;29;20023;-70
2021/05/07 02:00:12;;;;;;;8.18;4.40;;;14.30;95.30;;;;;;4958252;29;20027;-70
2021/05/07 02:02:39;;;;;;;6.40;4.18;;;14.40;95.30;;;;;;4958218;29;20363;-71
2021/05/07 02:05:06;;;;;;;7.07;4.80;;;14.40;95.60;;;;;;4958130;29;20027;-71
2021/05/07 02:07:32;;;;;;;7.25;4.10;;;14.40;95.30;;;;;;4957926;29;20430;-70
2021/05/07 02:09:58;;;;;;;8.60;4.50;;;14.40;95.50;;;;;;4957963;29;20020;-70
2021/05/07 02:12:24;;;;;;;7.13;4.20;;;14.40;96.00;;;;;;4958186;29;20354;-71
2021/05/07 02:14:50;;;;;;;8.88;4.32;;;14.40;95.50;;;;;;4957936;29;20027;-71
2021/05/07 02:17:17;;;;;;;7.65;4.50;;;14.40;95.40;;;;;;4957915;29;20019;-71
2021/05/07 02:19:44;;;;;;;8.63;4.45;;;14.40;95.20;;;;;;4940417;29;20027;-70
2021/05/07 02:22:10;;;;;;;9.27;4.55;;;14.50;95.20;;;;;;4957774;29;20148;-69
2021/05/07 02:24:36;;;;;;;11.32;4.97;;;14.50;95.40;;;;;;4957691;29;20110;-70
2021/05/07 02:27:03;;;;;;;8.55;4.18;;;14.50;95.20;;;;;;4957649;29;20026;-71
2021/05/07 02:29:30;;;;;;;7.75;4.10;;;14.50;95.20;;;;;;4957756;29;20030;-70
2021/05/07 02:31:56;;;;;;;6.68;4.18;;;14.50;95.30;;;;;;4957636;29;20024;-70
2021/05/07 02:34:23;;;;;;;9.45;4.43;;;14.50;95.40;;;;;;4940284;29;20020;-70
2021/05/07 02:36:49;;;;;;;6.95;3.95;;;14.50;95.30;;;;;;4957288;29;20059;-71
2021/05/07 02:39:16;;;;;;;7.25;4.13;;;14.50;95.20;;;;;;4957430;29;20058;-71
2021/05/07 02:41:43;;;;;;;8.70;4.40;;;14.50;95.00;;;;;;4940192;29;20090;-70
2021/05/07 02:44:10;;;;;;;7.22;4.03;;;14.50;95.30;;;;;;4940353;29;20063;-71
2021/05/07 02:46:37;;;;;;;10.02;4.60;;;14.50;95.30;;;;;;4957443;29;20023;-70
2021/05/07 02:49:06;;;;;;;9.82;4.97;;;14.50;95.30;;;;;;4957311;29;20029;-70
2021/05/07 02:51:34;;;;;;;9.68;5.13;;;14.50;95.40;;;;;;4956693;29;20149;-70
2021/05/07 02:54:01;;;;;;;11.48;5.15;;;14.50;95.30;;;;;;4939869;29;20031;-70
2021/05/07 02:56:27;;;;;;;10.02;5.10;;;14.50;95.70;;;;;;4939872;29;20032;-71
2021/05/07 02:58:53;;;;;;;7.93;4.70;;;14.50;95.30;;;;;;4957221;29;20023;-70
2021/05/07 03:01:19;;;;;;;8.68;4.90;;;14.60;95.80;;;;;;4939572;28;20023;-71
2021/05/07 03:03:46;;;;;;;8.23;4.70;;;14.60;95.70;;;;;;4956688;29;20493;-71
2021/05/07 03:06:12;;;;;;;8.25;4.20;;;14.60;95.60;;;;;;4955952;29;20028;-70
2021/05/07 03:08:38;;;;;;;9.32;4.25;;;14.60;95.70;;;;;;4956693;29;20082;-69
2021/05/07 03:11:05;;;;;;;8.32;4.38;;;14.70;95.30;;;;;;4956771;29;20023;-69
2021/05/07 03:13:31;;;;;;;8.70;4.80;;;14.70;95.50;;;;;;4957145;29;20051;-70
2021/05/07 03:15:58;;;;;;;8.27;4.20;;;14.70;95.90;;;;;;4956542;29;20462;-70
2021/05/07 03:18:24;;;;;;;7.30;4.63;;;14.70;95.60;;;;;;4956994;29;20023;-70
2021/05/07 03:20:51;;;;;;;9.60;4.57;;;14.70;95.80;;;;;;4956487;29;20421;-69
2021/05/07 03:23:17;;;;;;;7.40;4.30;;;14.80;95.40;;;;;;4956479;29;20067;-70
2021/05/07 03:25:44;;;;;;;8.10;4.10;;;14.70;95.80;;;;;;4956601;29;20024;-69
2021/05/07 03:28:11;;;;;;;6.70;4.32;;;14.70;96.30;;;;;;4956390;29;20483;-70
2021/05/07 03:30:38;;;;;;;7.65;4.30;;;14.70;96.60;;;;;;4956386;29;20101;-71
2021/05/07 03:33:06;;;;;;;10.30;4.30;;;14.70;96.20;;;;;;4956486;29;20043;-71
2021/05/07 03:35:33;;;;;;;10.07;4.40;;;14.70;95.90;;;;;;4956401;29;20181;-70
2021/05/07 03:37:59;;;;;;;8.07;4.10;;;14.70;96.30;;;;;;4964788;28;20022;-69
2021/05/07 03:40:25;;;;;;;6.70;3.95;;;14.70;96.00;;;;;;4974983;28;20502;-70
2021/05/07 03:42:52;;;;;;;8.45;4.10;;;14.70;96.20;;;;;;4957661;28;20123;-71
2021/05/07 03:45:18;;;;;;;5.95;4.28;;;14.70;96.30;;;;;;4975584;28;20031;-70
2021/05/07 03:47:45;;;;;;;7.22;4.03;;;14.80;96.60;;;;;;4975313;28;20055;-70
2021/05/07 03:50:12;;;;;;;8.95;4.30;;;14.70;96.40;;;;;;4975330;28;20027;-71
2021/05/07 03:52:40;;;;;;;8.63;3.90;;;14.80;96.30;;;;;;4974928;28;20050;-71
2021/05/07 03:55:08;;;;;;;11.18;4.10;;;14.90;95.40;;;;;;4975340;28;20374;-70
2021/05/07 03:57:34;;;;;;;5.28;3.38;;;14.90;95.20;;;;;;4975416;28;20030;-70
2021/05/07 04:00:05;;;;;;;6.60;3.25;;;14.90;95.10;;;;;;4961337;28;20115;-71
2021/05/07 04:02:31;;;;;;;7.30;3.50;;;14.90;94.60;;;;;;4955678;29;20453;-71
2021/05/07 04:04:57;;;;;;;7.75;3.30;;;15.00;94.60;;;;;;4955875;29;20366;-70
2021/05/07 04:07:23;;;;;;;12.52;3.83;;;15.00;94.60;;;;;;4955704;29;20086;-70
2021/05/07 04:09:55;;;;;;;7.97;3.67;;;15.00;94.70;;;;;;4955940;29;20098;-71
2021/05/07 04:15:16;;;;;;;;;;;15.00;95.30;;;;;;4870800;29;20089;-70
2021/05/07 04:17:42;;;;;;;12.20;6.68;;;15.10;96.30;;;;;;4955799;29;19906;-70
2021/05/07 04:20:10;;;;;;;12.07;7.43;;;15.10;95.80;;;;;;4967344;28;20081;-71
2021/05/07 04:22:39;;;;;;;12.90;6.03;;;15.10;96.20;;;;;;4974967;28;20026;-70
2021/05/07 04:25:08;;;;;;;13.43;5.80;;;15.10;95.70;;;;;;4974844;28;20026;-71
2021/05/07 04:27:34;;;;;;;14.65;6.07;;;15.10;95.80;;;;;;4974674;28;20031;-69
2021/05/07 04:30:01;;;;;;;8.38;5.00;;;15.20;95.20;;;;;;4974935;28;20030;-71
2021/05/07 04:32:27;;;;;;;10.73;5.78;;;15.30;95.60;;;;;;4974718;28;20019;-71
2021/05/07 04:34:53;;;;;;;11.02;5.95;;;15.30;96.10;;;;;;4974945;28;20027;-70
2021/05/07 04:37:19;;;;;;;11.18;6.10;;;15.30;97.10;;;;;;4974908;28;20149;-70
2021/05/07 04:39:45;;;;;;;12.13;6.60;;;15.40;96.30;;;;;;4974564;28;20102;-71
2021/05/07 04:42:11;;;;;;;11.85;6.30;;;15.40;97.50;;;;;;4974963;28;20405;-70
2021/05/07 04:44:37;;;;;;;9.63;6.22;;;15.50;96.10;;;;;;4974648;28;20026;-70
2021/05/07 04:47:03;;;;;;;11.55;5.85;;;15.50;97.20;;;;;;4974681;28;20370;-70
2021/05/07 04:49:29;;;;;;;11.45;6.38;;;15.60;95.90;;;;;;4974914;28;20030;-71
2021/05/07 04:51:55;;;;;;;13.05;6.28;;;15.70;96.30;;;;;;4974552;28;20097;-71
2021/05/07 04:54:22;;;;;;;11.85;6.40;;;15.70;95.70;;;;;;4974457;28;20026;-71
2021/05/07 04:56:48;;;;;;;17.98;7.05;;;15.70;98.10;;;;;;4974726;28;20027;-71
2021/05/07 04:59:14;;;;;;;12.90;7.10;;;15.70;98.20;;;;;;4958800;28;20508;-70
2021/05/07 05:01:40;;;;;;;14.02;6.90;;;15.70;97.50;;;;;;4938023;29;20020;-71
2021/05/07 05:04:06;;;;;;;9.95;6.68;;;15.80;96.80;;;;;;4955096;29;20114;-70
2021/05/07 05:06:31;;;;;;;13.27;6.97;;;15.90;97.40;;;;;;4955752;29;20344;-71
2021/05/07 05:08:57;;;;;;;13.10;6.07;;;16.00;97.80;;;;;;4955098;29;20067;-71
2021/05/07 05:11:23;;;;;;;11.95;6.93;;;16.00;97.50;;;;;;4955304;29;20078;-70
2021/05/07 05:13:49;;;;;;;13.02;5.70;;;16.10;96.40;;;;;;4937918;29;20066;-71
2021/05/07 05:16:15;;;;;;;10.55;5.85;;;16.20;96.00;;;;;;4955054;29;20031;-71
2021/05/07 05:18:41;;;;;;;14.45;5.70;;;16.30;95.90;;;;;;4955183;29;20030;-71
2021/05/07 05:21:09;;;;;;;14.48;6.28;;;16.30;95.50;;;;;;4955151;29;20110;-71
2021/05/07 05:23:36;;;;;;;10.85;6.28;;;16.30;95.30;;;;;;4955027;29;20042;-72
2021/05/07 05:26:02;;;;;;;12.52;6.60;;;16.40;96.00;;;;;;4957310;28;20090;-71
2021/05/07 05:28:28;;;;;;;18.95;8.57;;;16.40;96.20;;;;;;4958651;29;20023;-70
2021/05/07 05:30:55;;;;;;;19.60;8.00;;;16.50;97.80;;;;;;4958564;29;20027;-72
2021/05/07 05:33:21;;;;;;;17.92;9.38;;;16.60;97.00;;;;;;4958571;29;20016;-70
2021/05/07 05:35:48;;;;;;;19.73;8.70;;;16.70;96.70;;;;;;4958571;29;20030;-71
2021/05/07 05:38:14;;;;;;;20.48;9.00;;;16.80;97.20;;;;;;4958741;29;20019;-70
2021/05/07 05:40:41;;;;;;;11.82;5.60;;;16.90;95.80;;;;;;4958899;28;20024;-70
2021/05/07 05:43:08;;;;;;;18.17;6.57;;;16.90;94.50;;;;;;4967419;28;20385;-70
2021/05/07 05:45:34;;;;;;;15.32;5.80;;;17.00;94.80;;;;;;4967502;28;20018;-70
2021/05/07 05:48:05;;;;;;;15.02;6.30;;;17.00;94.40;;;;;;4966599;28;20022;-70
2021/05/07 05:50:35;;;;;;;10.27;5.20;;;17.00;95.00;;;;;;4965081;28;20021;-70
2021/05/07 05:53:01;;;;;;;9.85;4.78;;;17.10;94.20;;;;;;4966136;28;20047;-70
2021/05/07 05:55:27;;;;;;;9.45;4.35;;;17.20;93.90;;;;;;4962887;28;20038;-70
2021/05/07 05:57:53;;;;;;;9.15;4.20;;;17.30;93.00;;;;;;4958802;29;20034;-69
2021/05/07 06:00:20;;;;;;;9.00;4.00;;;17.30;92.80;;;;;;4958746;29;20090;-71
2021/05/07 06:02:46;;;;;;;5.70;3.63;;;17.40;93.30;;;;;;4970381;28;20034;-72
2021/05/07 06:05:13;;;;;;;6.63;3.78;;;17.50;92.90;;;;;;4971813;28;20511;-69
2021/05/07 06:07:39;;;;;;;6.88;4.00;;;17.50;93.20;;;;;;4977625;28;20050;-70
2021/05/07 06:10:07;;;;;;;8.48;4.47;;;17.50;92.30;;;;;;4970562;28;20066;-69
2021/05/07 06:12:33;;;;;;;7.57;4.47;;;17.60;92.70;;;;;;4976934;28;20031;-70
2021/05/07 06:14:59;;;;;;;10.60;4.15;;;17.70;92.30;;;;;;4971302;28;20023;-70
2021/05/07 06:17:26;;;;;;;10.07;4.32;;;17.70;92.70;;;;;;4969543;28;20023;-71
2021/05/07 06:19:52;;;;;;;12.10;4.43;;;17.80;92.30;;;;;;4944805;28;20035;-71
2021/05/07 06:22:18;;;;;;;13.75;4.57;;;17.90;92.80;;;;;;4961123;28;20506;-71
2021/05/07 06:24:44;;;;;;;11.15;4.95;;;18.00;92.90;;;;;;4957511;29;20027;-71
2021/05/07 06:27:10;;;;;;;11.68;4.28;;;18.10;93.00;;;;;;4966852;28;20060;-70
2021/05/07 06:29:36;;;;;;;12.50;3.95;;;18.20;92.20;;;;;;4967523;28;20046;-73
2021/05/07 06:32:02;;;;;;;8.05;3.95;;;18.30;93.00;;;;;;4969684;28;20426;-72
2021/05/07 06:34:28;;;;;;;7.93;3.97;;;18.40;92.80;;;;;;4958162;28;20110;-71
2021/05/07 06:36:54;;;;;;;7.38;3.55;;;18.60;93.10;;;;;;4956814;28;20053;-70
2021/05/07 06:39:20;;;;;;;7.40;3.15;;;18.70;92.40;;;;;;4957375;29;20020;-71
2021/05/07 06:41:46;;;;;;;6.68;3.30;;;18.90;91.90;;;;;;4957316;29;20030;-72
2021/05/07 06:44:13;;;;;;;6.45;3.08;;;18.90;91.60;;;;;;4957271;29;20035;-71
2021/05/07 06:46:39;;;;;;;6.60;3.00;;;19.00;90.80;;;;;;4957276;29;20103;-73
2021/05/07 06:49:04;;;;;;;10.73;3.67;;;19.10;90.60;;;;;;4957530;29;20441;-71
2021/05/07 06:51:30;;;;;;;9.23;3.58;;;19.40;90.60;;;;;;4956834;29;20027;-71
2021/05/07 06:53:56;;;;;;;8.57;3.22;;;19.50;90.40;;;;;;4957469;29;20039;-71
2021/05/07 06:56:22;;;;;;;10.20;3.38;;;19.60;90.20;;;;;;4957116;29;20027;-71
2021/05/07 06:58:49;;;;;;;6.40;3.15;;;19.80;89.90;;;;;;4959619;28;20031;-71
2021/05/07 07:01:15;;;;;;;12.77;4.22;;;20.00;89.60;;;;;;4959424;28;20019;-71
2021/05/07 07:03:41;;;;;;;7.82;3.40;;;20.20;90.20;;;;;;4961878;28;20056;-71
2021/05/07 07:06:07;;;;;;;11.63;4.82;;;20.40;86.00;;;;;;4968235;28;20378;-70
2021/05/07 07:08:33;;;;;;;7.53;3.65;;;20.40;86.80;;;;;;4976140;28;20085;-70
2021/05/07 07:10:59;;;;;;;7.53;3.38;;;20.40;87.00;;;;;;4956799;28;20540;-71
2021/05/07 07:13:27;;;;;;;8.32;3.17;;;20.30;87.10;;;;;;4957068;29;20466;-70
2021/05/07 07:15:53;;;;;;;9.23;3.50;;;20.40;85.90;;;;;;4957332;29;20019;-69
2021/05/07 07:18:20;;;;;;;7.93;4.75;;;20.50;87.20;;;;;;4958616;29;20023;-71
2021/05/07 07:20:47;;;;;;;10.93;3.60;;;20.50;86.60;;;;;;4957353;29;20032;-71
2021/05/07 07:23:14;;;;;;;8.48;4.32;;;20.60;85.00;;;;;;4956861;29;20110;-70
2021/05/07 07:25:40;;;;;;;9.20;3.85;;;20.60;86.10;;;;;;4957087;29;20110;-70
2021/05/07 07:28:06;;;;;;;8.23;4.63;;;20.60;85.80;;;;;;4956625;29;20403;-73
2021/05/07 07:30:32;;;;;;;6.60;4.03;;;20.60;84.40;;;;;;4956630;29;20023;-71
2021/05/07 07:32:59;;;;;;;6.82;3.50;;;20.70;82.80;;;;;;4956590;29;20031;-71
2021/05/07 07:35:24;;;;;;;4.80;2.72;;;20.80;84.30;;;;;;4957272;28;20118;-74
2021/05/07 07:37:50;;;;;;;5.05;2.60;;;21.00;81.80;;;;;;4939131;29;20114;-71
2021/05/07 07:40:16;;;;;;;4.78;2.58;;;21.30;77.60;;;;;;4956316;29;20114;-69
2021/05/07 07:42:43;;;;;;;5.28;2.20;;;21.70;76.60;;;;;;4956279;29;20031;-70
2021/05/07 07:45:11;;;;;;;4.53;2.08;;;21.90;74.20;;;;;;4956221;29;20078;-67
2021/05/07 07:47:37;;;;;;;5.97;1.90;;;;;;;;;;4956201;28;20438;-69
2021/05/07 07:50:07;;;;;;;6.97;2.20;;;22.20;71.40;;;;;;4962490;28;20027;-67
2021/05/07 07:52:35;;;;;;;10.82;2.25;;;22.30;72.50;;;;;;4974874;28;20046;-70
2021/05/07 07:55:04;;;;;;;5.88;2.40;;;22.10;70.00;;;;;;4975039;28;20533;-69
2021/05/07 07:57:30;;;;;;;6.70;2.20;;;22.10;69.30;;;;;;4954543;28;20381;-70
2021/05/07 07:59:56;;;;;;;4.15;1.95;;;22.40;68.50;;;;;;4969939;28;20032;-68
2021/05/07 08:02:25;;;;;;;8.30;2.42;;;22.60;68.00;;;;;;4974960;28;20027;-69
2021/05/07 08:04:51;;;;;;;11.18;2.55;;;22.60;67.10;;;;;;4974634;28;20122;-68
2021/05/07 08:07:17;;;;;;;5.47;2.10;;;22.60;66.50;;;;;;4974926;28;20054;-70
2021/05/07 08:09:43;;;;;;;5.60;2.17;;;;;;;;;;4975476;28;20030;-70
2021/05/07 08:12:10;;;;;;;5.07;2.13;;;22.80;67.00;;;;;;4975218;28;20050;-69
2021/05/07 08:14:36;;;;;;;5.22;2.45;;;23.00;66.60;;;;;;4975164;28;20027;-68
2021/05/07 08:17:03;;;;;;;4.28;1.80;;;23.10;66.60;;;;;;4975150;28;20385;-70
2021/05/07 08:19:29;;;;;;;5.20;2.15;;;23.20;66.20;;;;;;4974978;28;20033;-70
2021/05/07 08:21:54;;;;;;;4.53;1.92;;;23.20;65.00;;;;;;4974078;28;20035;-66
2021/05/07 08:24:21;;;;;;;4.75;1.67;;;23.60;63.90;;;;;;4974481;28;20376;-70
2021/05/07 08:26:48;;;;;;;9.07;2.03;;;23.60;63.80;;;;;;4974077;28;20018;-70
2021/05/07 08:29:15;;;;;;;5.20;1.98;;;23.60;63.10;;;;;;4957429;28;20038;-66
2021/05/07 08:31:41;;;;;;;4.07;2.30;;;23.40;63.20;;;;;;4974710;28;20384;-69
2021/05/07 08:34:10;;;;;;;5.30;2.70;;;23.30;63.00;;;;;;4975086;28;20023;-69
2021/05/07 08:36:36;;;;;;;4.25;1.95;;;23.40;63.10;;;;;;4974723;28;20500;-69
2021/05/07 08:39:02;;;;;;;5.22;1.90;;;23.40;62.90;;;;;;4957224;28;20030;-69
2021/05/07 08:41:28;;;;;;;5.03;2.10;;;23.40;63.10;;;;;;4974940;28;20019;-70
2021/05/07 08:43:54;;;;;;;5.07;2.53;;;23.30;64.00;;;;;;4975024;28;20080;-68
2021/05/07 08:46:20;;;;;;;4.65;2.03;;;23.30;64.20;;;;;;4974785;28;20027;-67
2021/05/07 08:48:46;;;;;;;9.57;2.30;;;23.00;62.40;;;;;;4966991;28;20085;-68
2021/05/07 08:51:12;;;;;;;6.63;1.92;;;23.20;63.30;;;;;;4947597;28;20113;-67
2021/05/07 08:53:38;;;;;;;6.45;1.95;;;23.70;64.10;;;;;;4962884;28;20437;-69
2021/05/07 08:56:06;;;;;;;4.78;2.03;;;23.90;63.70;;;;;;4964939;28;20019;-69
2021/05/07 08:58:32;;;;;;;4.75;1.77;;;24.20;61.40;;;;;;4965420;28;20024;-68
2021/05/07 09:00:58;;;;;;;5.50;2.00;;;24.50;59.40;;;;;;4979408;28;20106;-67
2021/05/07 09:03:24;;;;;;;5.47;1.70;;;24.30;59.70;;;;;;4979734;28;20558;-69
2021/05/07 09:05:51;;;;;;;5.57;1.85;;;23.90;57.90;;;;;;4978994;28;20370;-69
2021/05/07 09:08:17;;;;;;;5.10;1.98;;;23.90;60.40;;;;;;4978725;28;20030;-69
2021/05/07 09:10:46;;;;;;;4.50;2.15;;;23.70;59.10;;;;;;4978506;28;20104;-67
2021/05/07 09:13:20;;;;;;;6.43;3.67;;;23.60;60.30;;;;;;4977149;28;20022;-68
2021/05/07 09:15:53;;;;;;;5.00;2.40;;;23.60;59.60;;;;;;4974310;28;20470;-67
2021/05/07 09:18:19;;;;;;;4.45;2.00;;;23.70;60.60;;;;;;4978105;28;20249;-69
2021/05/07 09:20:47;;;;;;;6.35;1.80;;;23.60;59.80;;;;;;4960844;28;20409;-68
2021/05/07 09:23:14;;;;;;;4.35;1.70;;;23.90;60.40;;;;;;4972423;28;20027;-68
2021/05/07 09:25:46;;;;;;;3.58;1.98;;;24.50;58.30;;;;;;4967774;28;20074;-68
2021/05/07 09:28:16;;;;;;;6.25;1.90;;;25.00;59.20;;;;;;4965581;28;20030;-67
2021/05/07 09:30:44;;;;;;;3.10;1.77;;;24.90;56.50;;;;;;4963532;28;20350;-67
2021/05/07 09:33:15;;;;;;;3.25;1.50;;;24.60;56.70;;;;;;4977465;28;20054;-69
2021/05/07 09:35:42;;;;;;;4.45;1.83;;;24.80;57.00;;;;;;4960773;28;20048;-65
2021/05/07 09:38:17;;;;;;;5.53;2.30;;;25.30;57.70;;;;;;4958419;29;20023;-69
2021/05/07 09:40:43;;;;;;;4.75;1.83;;;25.40;56.80;;;;;;4958671;29;20019;-65
2021/05/07 09:43:12;;;;;;;3.13;1.70;;;26.00;59.80;;;;;;4959087;29;20031;-69
2021/05/07 09:45:41;;;;;;;5.20;1.60;;;26.40;57.90;;;;;;4958873;29;20027;-69
2021/05/07 09:48:24;;;;;;;3.58;1.58;;;26.40;54.80;;;;;;4958563;29;20480;-69
2021/05/07 09:50:55;;;;;;;6.73;2.00;;;25.90;55.80;;;;;;4958632;29;20030;-69
2021/05/07 09:53:23;;;;;;;5.30;1.70;;;25.70;54.50;;;;;;4957993;29;20329;-69
2021/05/07 09:56:01;;;;;;;4.90;1.90;;;25.10;54.20;;;;;;4958316;29;20062;-69
2021/05/07 09:58:28;;;;;;;5.10;1.77;;;24.60;54.50;;;;;;4958437;29;20023;-69
2021/05/07 10:00:57;;;;;;;5.22;1.95;;;24.40;55.00;;;;;;4958419;29;20031;-66
2021/05/07 10:03:25;;;;;;;4.03;1.65;;;24.30;55.50;;;;;;4958150;29;20035;-66
2021/05/07 10:05:51;;;;;;;5.18;1.98;;;24.10;56.60;;;;;;4958172;29;20030;-69
2021/05/07 10:08:18;;;;;;;5.70;1.80;;;23.90;57.00;;;;;;4940724;29;20043;-69
2021/05/07 10:10:45;;;;;;;3.97;1.80;;;23.60;57.10;;;;;;4957977;28;20372;-67
2021/05/07 10:13:25;;;;;;;5.05;2.08;;;23.60;58.00;;;;;;4957017;29;20363;-67
2021/05/07 10:16:01;;;;;;;5.82;2.00;;;23.60;59.00;;;;;;4957909;29;20046;-67
2021/05/07 10:18:27;;;;;;;6.43;2.00;;;23.50;59.30;;;;;;4941091;29;20028;-70
2021/05/07 10:21:04;;;;;;;5.47;1.95;;;23.50;59.10;;;;;;4958503;29;20026;-67
2021/05/07 10:23:30;;;;;;;7.28;3.00;;;23.60;59.10;;;;;;4958239;29;20102;-72
2021/05/07 10:26:00;;;;;;;7.50;2.90;;;23.60;59.60;;;;;;4957572;29;20486;-70
2021/05/07 10:28:27;;;;;;;6.95;2.47;;;23.60;59.70;;;;;;4958119;29;20090;-70
2021/05/07 10:31:08;;;;;;;8.45;2.60;;;23.60;58.50;;;;;;4957874;29;20046;-70
2021/05/07 10:33:35;;;;;;;8.98;1.95;;;;;;;;;;4957957;29;20524;-70
2021/05/07 10:36:01;;;;;;;6.15;1.80;;;23.40;57.70;;;;;;4957842;29;20477;-72
2021/05/07 10:38:28;;;;;;;4.80;1.63;;;23.30;59.30;;;;;;4958009;29;20517;-69
2021/05/07 10:41:10;;;;;;;6.70;2.28;;;23.20;58.70;;;;;;4940028;29;20027;-69
2021/05/07 10:43:59;;;;;;;7.10;2.33;;;23.20;57.80;;;;;;4957144;29;20078;-71
2021/05/07 10:46:26;;;;;;;4.28;1.85;;;23.10;59.00;;;;;;4957376;29;20036;-70
2021/05/07 10:48:57;;;;;;;4.40;1.50;;;23.10;59.50;;;;;;4957205;29;20382;-69
2021/05/07 10:51:25;;;;;;;3.15;1.67;;;23.00;59.40;;;;;;4957381;29;20023;-71
2021/05/07 10:54:03;;;;;;;4.65;1.58;;;23.00;60.00;;;;;;4956911;29;20513;-69
2021/05/07 10:56:39;;;;;;;4.25;1.70;;;23.00;60.60;;;;;;4957310;29;20031;-70
2021/05/07 10:59:16;;;;;;;5.72;1.60;;;23.00;59.90;;;;;;4957974;29;20104;-69
2021/05/07 11:01:56;;;;;;;5.55;1.45;;;23.10;61.70;;;;;;4958669;29;20027;-75
2021/05/07 11:04:21;;;;;;;3.67;1.48;;;23.10;58.90;;;;;;4958490;29;20039;-70
2021/05/07 11:07:02;;;;;;;6.15;1.80;;;23.30;58.60;;;;;;4957362;29;20050;-73
2021/05/07 11:09:28;;;;;;;5.38;2.00;;;23.40;59.60;;;;;;4954896;29;20078;-69
2021/05/07 11:12:02;;;;;;;5.50;2.00;;;23.60;58.60;;;;;;4937405;29;20035;-68
2021/05/07 11:14:28;;;;;;;3.38;1.70;;;23.80;59.90;;;;;;4954737;29;20045;-69
2021/05/07 11:16:54;;;;;;;3.25;1.55;;;23.90;58.90;;;;;;4954493;29;20028;-69
2021/05/07 11:19:24;;;;;;;3.83;1.48;;;23.90;59.50;;;;;;4937361;29;20647;-69
2021/05/07 11:21:59;;;;;;;7.03;1.58;;;24.10;60.00;;;;;;4956339;29;20035;-70
2021/05/07 11:24:27;;;;;;;4.38;1.50;;;24.10;58.40;;;;;;4956684;28;20479;-71
2021/05/07 11:26:54;;;;;;;3.40;1.50;;;24.10;59.50;;;;;;4956703;29;20023;-71
2021/05/07 11:29:27;;;;;;;3.30;1.40;;;24.20;59.80;;;;;;4956669;29;20098;-72
2021/05/07 11:31:53;;;;;;;3.30;1.58;;;24.20;57.90;;;;;;4938996;29;20113;-71
2021/05/07 11:34:26;;;;;;;4.03;1.60;;;24.30;58.80;;;;;;4939084;29;20121;-71
2021/05/07 11:36:59;;;;;;;4.50;1.60;;;24.60;59.80;;;;;;4956397;29;20031;-71
2021/05/07 11:39:26;;;;;;;4.15;1.38;;;24.80;58.90;;;;;;4939034;29;20317;-71
2021/05/07 11:41:53;;;;;;;4.63;1.90;;;24.70;58.10;;;;;;4956175;29;20027;-72
2021/05/07 11:44:19;;;;;;;4.30;1.75;;;24.80;58.60;;;;;;4956706;29;20031;-71
2021/05/07 11:47:15;;;;;;;5.00;1.92;;;25.10;61.50;;;;;;4956347;29;20449;-71
2021/05/07 11:49:48;;;;;;;6.85;1.55;;;24.90;57.60;;;;;;4897324;29;20041;-71
2021/05/07 11:52:15;;;;;;;3.03;1.70;;;24.80;58.40;;;;;;4897193;29;20045;-71
2021/05/07 11:54:42;;;;;;;2.38;1.30;;;24.90;57.80;;;;;;4897034;29;20193;-69
2021/05/07 11:57:09;;;;;;;3.35;1.60;;;25.10;59.20;;;;;;4897162;29;20575;-71
2021/05/07 11:59:50;;;;;;;4.68;1.75;;;25.10;59.20;;;;;;4897503;29;20044;-70
2021/05/07 12:02:24;;;;;;;2.95;1.63;;;25.00;58.10;;;;;;4897047;29;20112;-72
2021/05/07 12:04:51;;;;;;;3.55;1.60;;;24.80;56.00;;;;;;4897302;29;20043;-70
2021/05/07 12:07:39;;;;;;;4.13;1.70;;;24.50;56.10;;;;;;4896926;29;20040;-70
2021/05/07 12:10:05;;;;;;;4.93;2.33;;;24.20;57.30;;;;;;4897032;29;20484;-71
2021/05/07 12:12:44;;;;;;;5.00;2.58;;;24.00;57.10;;;;;;4896748;29;20225;-71
2021/05/07 12:15:14;;;;;;;7.03;2.90;;;23.70;57.50;;;;;;4896806;29;20497;-70
2021/05/07 12:17:45;;;;;;;4.85;2.50;;;23.60;57.70;;;;;;4896573;29;20062;-71
2021/05/07 12:20:16;;;;;;;5.88;3.25;;;23.50;58.00;;;;;;4896768;29;20135;-71
2021/05/07 12:22:44;;;;;;;6.38;1.80;;;23.40;60.30;;;;;;4896517;29;20048;-71
2021/05/07 12:25:18;;;;;;;4.50;1.60;;;23.20;58.80;;;;;;4904523;29;20028;-70
2021/05/07 12:27:47;;;;;;;5.68;1.90;;;23.10;58.30;;;;;;4955715;29;20023;-71
2021/05/07 12:30:18;;;;;;;11.05;4.95;;;23.10;58.20;;;;;;4955523;29;20381;-70
2021/05/07 12:32:55;;;;;;;8.40;3.67;;;23.00;61.00;;;;;;4955427;29;20348;-70
2021/05/07 12:35:21;;;;;;;5.75;2.20;;;23.00;60.80;;;;;;4955221;28;20027;-71
2021/05/07 12:37:48;;;;;;;4.15;1.58;;;22.90;60.30;;;;;;4938289;29;20028;-71
2021/05/07 12:40:13;;;;;;;4.97;2.10;;;22.90;58.90;;;;;;4955413;29;20027;-69
2021/05/07 12:42:39;;;;;;;8.20;2.28;;;22.90;59.60;;;;;;4955481;29;20042;-71
2021/05/07 12:45:06;;;;;;;6.80;2.15;;;22.90;59.10;;;;;;4955250;29;20031;-70
2021/05/07 12:47:32;;;;;;;4.47;2.28;;;22.70;59.00;;;;;;4955182;29;20036;-71
2021/05/07 12:49:59;;;;;;;4.90;1.92;;;22.70;60.40;;;;;;4955010;29;20421;-71
2021/05/07 12:52:25;;;;;;;3.03;1.50;;;22.70;59.20;;;;;;4954564;29;20079;-71